Bleakwood, Texas
Current Conditions -  °F | °C
As of 6:15 AM on Thursday 29 Jan 2015 (Local Time) from KJAS Reporting Station
Moderate Fog Moderate Fog  
Wind Chill: 55°   Ceiling: 100
Heat Index: 55°   Visibility: 0.25mi
Dew Point: 55°   Wind: 6mph
Humidity: 99%   Direction: 200°SSW
Pressure: 30.2"   Gusts: NA
Location:  30.7133°N, 93.9985°W
Report Text: KJAS 291215Z AUTO 20005KT 1/4SM FG OVC001 13/13 A3020 RMK AO2 T01270125
Loading
Personal Weather Stations






























Interactive Weather Map New forecast layout! Learn more

10-Day Weather Forecast

Advertisements
Track Severe Weather on mobile